Time;durP1;ratioP1;P1;durP2;ratioP2;P2;SDS_P1;SDS_P2;PMS_P1;PMS_P2;Temp;Humidity;BMP_temperature;BMP_pressure;BME280_temperature;BME280_humidity;BME280_pressure;Samples;Min_cycle;Max_cycle;Signal;HPM_P1;HPM_P2
2022/05/11 00:02:17;;;;;;;1.30;0.63;;;17.30;98.90;;;;;;5008757;28;20201;-92
2022/05/11 00:04:50;;;;;;;3.53;0.87;;;17.30;99.80;;;;;;5019953;28;20216;-93
2022/05/11 00:10:14;;;;;;;3.70;1.00;;;17.50;99.10;;;;;;5033486;28;20244;-92
2022/05/11 00:12:48;;;;;;;1.10;0.60;;;17.60;98.50;;;;;;5051566;28;20217;-92
2022/05/11 00:18:10;;;;;;;4.07;0.90;;;17.10;99.90;;;;;;5047269;28;20240;-92
2022/05/11 00:23:39;;;;;;;1.97;0.80;;;16.10;99.80;;;;;;5049001;28;20233;-92
2022/05/11 00:26:17;;;;;;;2.50;0.97;;;16.20;99.60;;;;;;5049668;28;20205;-91
2022/05/11 00:28:49;;;;;;;1.40;0.70;;;15.80;99.70;;;;;;5050973;28;20212;-90
2022/05/11 00:31:20;;;;;;;2.43;0.70;;;15.70;99.90;;;;;;5054095;28;20205;-91
2022/05/11 00:33:54;;;;;;;2.03;0.60;;;15.80;99.90;;;;;;5046856;28;20243;-91
2022/05/11 00:36:28;;;;;;;1.77;0.80;;;15.80;99.90;;;;;;5023037;28;20196;-91
2022/05/11 00:38:59;;;;;;;2.40;0.83;;;15.80;99.90;;;;;;5052573;28;20232;-92
2022/05/11 00:41:41;;;;;;;1.60;0.60;;;15.60;99.90;;;;;;5053409;28;20213;-91
2022/05/11 00:44:12;;;;;;;4.93;0.70;;;15.60;99.70;;;;;;5048707;28;20232;-91
2022/05/11 00:46:58;;;;;;;1.43;0.60;;;15.70;99.90;;;;;;5044738;28;20204;-90
2022/05/11 00:49:35;;;;;;;1.37;0.60;;;15.70;99.90;;;;;;5037954;28;20304;-90
2022/05/11 00:52:11;;;;;;;2.63;1.00;;;15.80;99.90;;;;;;5027392;28;20204;-91
2022/05/11 00:54:47;;;;;;;1.87;0.70;;;15.80;99.90;;;;;;5039330;28;20217;-91
2022/05/11 00:57:26;;;;;;;2.70;1.00;;;15.70;99.90;;;;;;5030127;28;20223;-92
2022/05/11 00:59:58;;;;;;;2.37;0.83;;;15.60;99.90;;;;;;5044858;28;20209;-94
2022/05/11 01:05:29;;;;;;;2.83;0.80;;;16.50;99.90;;;;;;5056387;28;20288;-93
2022/05/11 01:08:01;;;;;;;1.80;1.00;;;17.60;99.90;;;;;;5048758;28;20209;-94
2022/05/11 01:10:35;;;;;;;1.00;0.70;;;18.30;99.90;;;;;;5042665;28;20267;-93
2022/05/11 01:13:13;;;;;;;0.97;0.60;;;18.80;99.90;;;;;;5027221;28;20209;-93
2022/05/11 01:15:50;;;;;;;2.13;0.70;;;19.70;99.40;;;;;;5025560;28;20197;-94
2022/05/11 01:18:24;;;;;;;1.37;0.63;;;20.10;98.50;;;;;;5026455;28;20205;-93
2022/05/11 01:20:57;;;;;;;2.63;0.90;;;20.40;98.00;;;;;;5020444;28;20237;-94
2022/05/11 01:23:34;;;;;;;1.20;0.60;;;19.60;97.20;;;;;;5029832;28;20229;-92
2022/05/11 01:26:08;;;;;;;2.43;0.80;;;19.30;96.80;;;;;;5028625;28;20205;-93
2022/05/11 01:28:43;;;;;;;1.40;0.70;;;19.80;97.40;;;;;;5025870;28;20232;-92
2022/05/11 01:31:15;;;;;;;2.43;1.00;;;19.90;95.80;;;;;;5024940;28;20239;-92
2022/05/11 01:33:50;;;;;;;3.23;1.10;;;18.90;95.90;;;;;;5024133;28;20222;-92
2022/05/11 01:36:27;;;;;;;2.83;0.80;;;18.30;98.10;;;;;;5023931;28;20225;-91
2022/05/11 01:39:01;;;;;;;1.73;0.87;;;18.80;98.50;;;;;;5045455;28;20204;-91
2022/05/11 01:41:37;;;;;;;2.70;0.60;;;18.50;97.20;;;;;;5056799;28;20235;-93
2022/05/11 01:44:14;;;;;;;1.70;0.87;;;18.50;97.20;;;;;;5053668;28;20228;-92
2022/05/11 01:49:27;;;;;;;1.83;0.77;;;18.90;97.00;;;;;;5030562;28;20247;-92
2022/05/11 01:51:59;;;;;;;2.47;0.77;;;19.40;96.80;;;;;;5035491;28;20213;-92
2022/05/11 01:54:30;;;;;;;2.40;0.70;;;19.10;95.10;;;;;;5035296;28;20220;-93
2022/05/11 01:57:05;;;;;;;2.23;0.80;;;18.30;96.10;;;;;;5031183;28;20229;-92
2022/05/11 01:59:37;;;;;;;1.27;0.63;;;18.30;96.90;;;;;;5024177;28;20229;-91
2022/05/11 02:02:08;;;;;;;0.97;0.50;;;17.70;97.00;;;;;;5029286;28;20263;-92
2022/05/11 02:10:17;;;;;;;0.83;0.60;;;15.80;98.90;;;;;;5010149;28;20221;-92
2022/05/11 02:12:54;;;;;;;2.80;0.70;;;15.60;99.90;;;;;;5000136;28;20210;-91
2022/05/11 02:15:28;;;;;;;1.60;0.70;;;15.50;99.90;;;;;;5004876;28;20202;-92
2022/05/11 02:18:00;;;;;;;2.43;1.07;;;15.20;99.90;;;;;;5011722;28;20209;-91
2022/05/11 02:20:33;;;;;;;1.33;0.60;;;15.10;99.90;;;;;;5011786;28;20288;-92
2022/05/11 02:23:05;;;;;;;1.97;0.60;;;14.70;99.90;;;;;;5010963;28;20206;-92
2022/05/11 02:25:38;;;;;;;1.83;0.70;;;14.70;99.90;;;;;;5009143;28;20264;-94
2022/05/11 02:28:15;;;;;;;1.90;0.80;;;14.60;99.90;;;;;;5008618;28;20214;-93
2022/05/11 02:30:47;;;;;;;2.00;0.83;;;14.60;99.90;;;;;;5014845;28;20209;-92
2022/05/11 02:33:19;;;;;;;2.17;0.87;;;14.50;99.90;;;;;;5029614;28;20276;-92
2022/05/11 02:35:52;;;;;;;2.27;0.77;;;14.30;99.90;;;;;;5037070;28;20288;-92
2022/05/11 02:38:28;;;;;;;2.07;0.87;;;14.30;99.90;;;;;;5034791;28;20198;-93
2022/05/11 02:41:00;;;;;;;1.77;0.70;;;14.30;99.90;;;;;;5034086;28;20190;-92
2022/05/11 02:43:36;;;;;;;1.07;0.50;;;14.30;99.90;;;;;;5037308;28;20201;-91
2022/05/11 02:46:09;;;;;;;1.83;0.80;;;14.10;99.90;;;;;;5037008;28;20252;-91
2022/05/11 02:48:41;;;;;;;3.70;0.60;;;14.00;99.90;;;;;;5035119;28;20224;-92
2022/05/11 02:51:12;;;;;;;1.53;0.60;;;13.80;99.90;;;;;;5033704;28;20201;-92
2022/05/11 02:53:46;;;;;;;3.87;1.10;;;13.80;99.90;;;;;;5036265;28;20210;-92
2022/05/11 02:56:20;;;;;;;2.90;0.90;;;13.70;99.90;;;;;;5036284;28;20202;-91
2022/05/11 02:58:58;;;;;;;1.30;0.53;;;13.60;99.90;;;;;;5034766;28;20220;-92
2022/05/11 03:01:33;;;;;;;2.00;0.70;;;13.50;99.90;;;;;;5036242;28;20217;-92
2022/05/11 03:04:06;;;;;;;2.53;0.50;;;13.50;99.90;;;;;;5036132;28;20221;-93
2022/05/11 03:06:38;;;;;;;3.07;0.70;;;13.50;99.90;;;;;;5034981;28;20221;-92
2022/05/11 03:09:11;;;;;;;2.93;0.60;;;13.40;99.90;;;;;;5033931;28;20210;-92
2022/05/11 03:11:43;;;;;;;1.80;0.70;;;13.40;99.90;;;;;;5027217;28;20202;-92
2022/05/11 03:14:16;;;;;;;1.80;0.87;;;13.40;99.90;;;;;;5022121;28;20202;-93
2022/05/11 03:16:48;;;;;;;1.27;0.60;;;13.30;99.90;;;;;;5024984;28;20209;-92
2022/05/11 03:19:19;;;;;;;2.87;1.10;;;13.20;99.90;;;;;;5032296;28;20244;-92
2022/05/11 03:21:54;;;;;;;2.13;0.50;;;13.10;99.90;;;;;;5033860;28;20190;-92
2022/05/11 03:24:29;;;;;;;1.30;0.50;;;13.00;99.90;;;;;;5036622;28;20260;-93
2022/05/11 03:27:01;;;;;;;2.07;0.70;;;13.00;99.90;;;;;;5035420;28;20202;-93
2022/05/11 03:29:37;;;;;;;2.60;0.70;;;12.90;99.90;;;;;;5038594;28;20304;-92
2022/05/11 03:35:03;;;;;;;2.60;0.67;;;12.50;99.90;;;;;;5031055;28;20190;-93
2022/05/11 03:37:37;;;;;;;3.30;0.90;;;12.30;99.90;;;;;;5033812;28;20198;-92
2022/05/11 03:40:12;;;;;;;1.77;0.80;;;12.20;99.90;;;;;;5036606;28;20621;-92
2022/05/11 03:42:44;;;;;;;2.10;0.90;;;12.10;99.90;;;;;;5036094;28;20206;-92
2022/05/11 03:45:19;;;;;;;2.97;0.80;;;12.00;99.90;;;;;;5033018;28;20249;-92
2022/05/11 03:47:50;;;;;;;2.80;0.70;;;11.90;99.90;;;;;;5030263;28;20217;-92
2022/05/11 03:50:27;;;;;;;2.40;0.70;;;11.80;99.90;;;;;;5034655;28;20194;-92
2022/05/11 03:53:02;;;;;;;1.97;1.10;;;11.70;99.90;;;;;;5039582;28;20216;-92
2022/05/11 03:55:36;;;;;;;3.33;1.10;;;11.60;99.90;;;;;;5160384;22;20285;-91
2022/05/11 03:58:08;;;;;;;2.80;1.20;;;11.50;99.90;;;;;;5076773;28;20234;-93
2022/05/11 04:00:45;;;;;;;2.37;1.10;;;11.50;99.90;;;;;;5073851;28;20232;-90
2022/05/11 04:03:18;;;;;;;2.30;0.90;;;11.40;99.90;;;;;;5074544;28;20246;-91
2022/05/11 04:05:51;;;;;;;5.07;1.30;;;11.30;99.90;;;;;;5072233;28;20232;-91
2022/05/11 04:08:26;;;;;;;2.57;1.00;;;11.20;99.90;;;;;;5073143;28;20204;-91
2022/05/11 04:11:01;;;;;;;3.30;1.30;;;11.20;99.90;;;;;;5073439;28;20237;-90
2022/05/11 04:13:33;;;;;;;4.77;1.23;;;11.20;99.90;;;;;;5069922;28;20230;-92
2022/05/11 04:16:10;;;;;;;2.13;0.80;;;11.20;99.90;;;;;;5073029;28;20196;-92
2022/05/11 04:18:42;;;;;;;2.30;0.80;;;11.20;99.90;;;;;;5068988;28;20262;-92
2022/05/11 04:21:14;;;;;;;2.40;0.90;;;11.20;99.90;;;;;;5070093;28;20215;-92
2022/05/11 04:23:45;;;;;;;3.27;1.00;;;11.20;99.90;;;;;;5069116;28;20207;-91
2022/05/11 04:26:18;;;;;;;3.60;1.13;;;11.10;99.90;;;;;;5071367;28;20232;-91
2022/05/11 04:28:52;;;;;;;2.20;1.00;;;11.20;99.90;;;;;;5066493;28;20212;-91
2022/05/11 04:31:26;;;;;;;1.43;0.80;;;11.10;99.90;;;;;;5063652;28;20222;-91
2022/05/11 04:33:58;;;;;;;2.63;1.10;;;11.00;99.90;;;;;;5046896;28;20217;-91
2022/05/11 04:36:35;;;;;;;2.10;1.03;;;10.90;99.90;;;;;;5041986;28;20231;-92
2022/05/11 04:39:06;;;;;;;1.70;1.07;;;11.00;99.90;;;;;;5041500;28;20266;-92
2022/05/11 04:41:40;;;;;;;2.03;1.00;;;11.00;99.90;;;;;;5041499;28;20724;-91
2022/05/11 04:44:11;;;;;;;2.60;0.90;;;11.00;99.90;;;;;;5042289;28;20255;-91
2022/05/11 04:46:45;;;;;;;3.23;1.20;;;11.00;99.90;;;;;;5046144;28;20236;-91
2022/05/11 04:49:19;;;;;;;1.67;1.00;;;11.00;99.90;;;;;;5037924;28;20213;-92
2022/05/11 04:51:53;;;;;;;1.60;1.30;;;10.90;99.90;;;;;;5038415;28;20285;-91
2022/05/11 04:54:24;;;;;;;2.10;1.10;;;10.90;99.90;;;;;;5040379;28;20340;-92
2022/05/11 04:56:56;;;;;;;2.13;1.10;;;10.80;99.90;;;;;;5044841;28;20216;-91
2022/05/11 04:59:27;;;;;;;1.87;1.00;;;10.60;99.90;;;;;;5038999;28;20209;-91
2022/05/11 05:02:01;;;;;;;2.97;1.17;;;10.60;99.90;;;;;;5041370;28;20274;-91
2022/05/11 05:04:34;;;;;;;2.07;1.03;;;10.50;99.90;;;;;;5042995;28;20205;-91
2022/05/11 05:07:06;;;;;;;1.30;0.97;;;10.50;99.90;;;;;;5046989;28;20267;-91
2022/05/11 05:09:37;;;;;;;2.30;1.07;;;10.40;99.90;;;;;;5054722;28;20560;-92
2022/05/11 05:12:10;;;;;;;3.23;1.30;;;10.30;99.90;;;;;;5064315;28;20223;-91
2022/05/11 05:14:42;;;;;;;3.57;0.90;;;10.20;99.90;;;;;;5058824;28;20227;-91
2022/05/11 05:17:21;;;;;;;2.57;1.13;;;10.10;99.90;;;;;;5058675;28;20222;-91
2022/05/11 05:19:53;;;;;;;2.67;1.20;;;10.00;99.90;;;;;;5059758;28;20295;-92
2022/05/11 05:22:24;;;;;;;1.10;1.00;;;9.90;99.90;;;;;;5061285;28;20239;-92
2022/05/11 05:24:55;;;;;;;4.10;1.47;;;9.80;99.90;;;;;;5058428;28;20232;-92
2022/05/11 05:31:08;;;;;;;1.43;1.00;;;9.80;99.90;;;;;;5073297;28;20283;-89
2022/05/11 05:33:42;;;;;;;3.40;1.13;;;9.70;99.90;;;;;;5058024;28;20239;-92
2022/05/11 05:36:13;;;;;;;2.57;1.20;;;9.80;99.90;;;;;;5058857;28;20208;-92
2022/05/11 05:38:44;;;;;;;1.37;1.20;;;9.80;99.90;;;;;;5057842;28;20239;-91
2022/05/11 05:41:15;;;;;;;3.50;1.20;;;9.70;99.90;;;;;;5059965;28;20224;-92
2022/05/11 05:43:47;;;;;;;2.07;0.70;;;9.70;99.90;;;;;;5060894;28;20703;-92
2022/05/11 05:46:19;;;;;;;2.20;1.10;;;9.60;99.90;;;;;;5063005;28;20236;-91
2022/05/11 05:48:56;;;;;;;1.40;0.87;;;9.60;99.90;;;;;;5062111;28;20227;-91
2022/05/11 05:51:27;;;;;;;2.93;0.90;;;9.60;99.90;;;;;;5059768;28;20210;-91
2022/05/11 05:54:00;;;;;;;1.37;0.77;;;9.60;99.90;;;;;;5058237;28;20212;-92
2022/05/11 05:56:32;;;;;;;4.40;1.07;;;9.60;99.90;;;;;;5058635;28;20214;-91
2022/05/11 05:59:09;;;;;;;1.50;1.00;;;9.50;99.90;;;;;;5057828;28;20204;-92
2022/05/11 06:01:40;;;;;;;3.10;0.93;;;9.50;99.90;;;;;;5058069;28;20291;-92
2022/05/11 06:04:13;;;;;;;3.57;1.20;;;9.30;99.90;;;;;;5055152;28;20192;-91
2022/05/11 06:06:44;;;;;;;3.50;1.20;;;9.30;99.90;;;;;;5074689;28;20235;-91
2022/05/11 06:09:16;;;;;;;1.43;0.83;;;9.20;99.90;;;;;;5070592;28;20203;-91
2022/05/11 06:11:48;;;;;;;2.83;1.37;;;9.20;99.90;;;;;;5059863;28;20289;-91
2022/05/11 06:14:19;;;;;;;2.10;1.00;;;9.10;99.90;;;;;;5060822;28;20262;-91
2022/05/11 06:16:59;;;;;;;3.90;1.10;;;9.00;99.90;;;;;;5058365;28;20204;-91
2022/05/11 06:19:36;;;;;;;2.73;1.03;;;9.00;99.90;;;;;;5057762;28;20204;-91
2022/05/11 06:22:09;;;;;;;2.73;1.33;;;8.90;99.90;;;;;;5057495;28;20231;-91
2022/05/11 06:24:40;;;;;;;3.03;1.10;;;8.80;99.90;;;;;;5056951;28;20566;-92
2022/05/11 06:27:17;;;;;;;2.40;1.17;;;8.70;99.90;;;;;;5064052;28;20220;-92
2022/05/11 06:29:54;;;;;;;2.33;1.10;;;8.70;99.90;;;;;;5063116;28;20338;-91
2022/05/11 06:32:26;;;;;;;5.10;1.33;;;8.60;99.90;;;;;;5041725;28;20235;-91
2022/05/11 06:35:00;;;;;;;3.20;1.00;;;8.50;99.90;;;;;;5051536;28;20729;-91
2022/05/11 06:37:31;;;;;;;2.47;1.30;;;8.50;99.90;;;;;;5039026;28;20296;-92
2022/05/11 06:40:03;;;;;;;3.33;1.20;;;8.40;99.90;;;;;;5039698;28;20239;-92
2022/05/11 06:42:35;;;;;;;3.60;0.97;;;8.40;99.90;;;;;;5058690;28;20540;-92
2022/05/11 06:45:08;;;;;;;3.63;1.00;;;8.40;99.90;;;;;;5044000;28;20295;-91
2022/05/11 06:47:40;;;;;;;4.43;1.20;;;8.30;99.90;;;;;;5043681;28;20267;-92
2022/05/11 06:50:14;;;;;;;2.40;1.13;;;8.30;99.90;;;;;;5046724;28;20224;-91
2022/05/11 06:52:45;;;;;;;2.43;0.93;;;8.40;99.90;;;;;;5055830;28;20216;-91
2022/05/11 07:00:52;;;;;;;2.97;1.30;;;8.50;99.90;;;;;;5043030;28;20213;-92
2022/05/11 07:03:24;;;;;;;5.37;1.30;;;8.50;99.90;;;;;;5042205;28;20255;-91
2022/05/11 07:05:57;;;;;;;2.10;1.07;;;8.50;99.90;;;;;;5045083;28;20287;-92
2022/05/11 07:08:35;;;;;;;7.23;1.30;;;8.50;99.90;;;;;;5058809;28;20208;-91
2022/05/11 07:13:55;;;;;;;4.53;1.17;;;8.40;99.90;;;;;;5059265;28;20245;-91
2022/05/11 07:16:28;;;;;;;6.00;1.77;;;8.30;99.90;;;;;;5058608;28;20192;-91
2022/05/11 07:19:00;;;;;;;5.70;2.10;;;8.40;99.90;;;;;;5058251;28;20200;-92
2022/05/11 07:21:33;;;;;;;4.17;2.43;;;8.30;99.90;;;;;;5059586;28;20208;-92
2022/05/11 07:24:04;;;;;;;4.93;1.73;;;8.30;99.90;;;;;;5058575;28;20185;-92
2022/05/11 07:26:36;;;;;;;3.97;1.20;;;8.20;99.90;;;;;;5059176;28;20263;-92
2022/05/11 07:29:07;;;;;;;3.47;1.43;;;8.10;99.90;;;;;;5058196;28;20208;-92
2022/05/11 07:31:43;;;;;;;4.40;1.50;;;8.10;99.90;;;;;;5058935;28;20311;-91
2022/05/11 07:34:15;;;;;;;2.67;1.30;;;8.10;99.90;;;;;;5057267;28;20244;-92
2022/05/11 07:36:54;;;;;;;4.90;1.53;;;8.00;99.90;;;;;;5056241;28;20205;-92
2022/05/11 07:39:25;;;;;;;1.97;1.43;;;8.00;99.90;;;;;;5070264;28;20196;-92
2022/05/11 07:41:58;;;;;;;4.50;1.33;;;8.10;99.90;;;;;;4726340;28;10000194;-92
2022/05/11 07:44:29;;;;;;;3.67;1.20;;;8.00;99.90;;;;;;5076587;28;20192;-92
2022/05/11 07:47:01;;;;;;;3.00;1.20;;;8.00;99.90;;;;;;5076792;28;20261;-92
2022/05/11 07:49:32;;;;;;;4.90;1.20;;;8.00;99.90;;;;;;5076479;28;20212;-91
2022/05/11 07:52:06;;;;;;;2.17;1.20;;;8.00;99.90;;;;;;5073554;28;20258;-91
2022/05/11 07:54:40;;;;;;;4.73;1.20;;;8.00;99.90;;;;;;5076168;28;20188;-90
2022/05/11 08:00:01;;;;;;;4.37;1.10;;;8.00;99.90;;;;;;5054548;28;20262;-92
2022/05/11 08:02:34;;;;;;;4.03;1.33;;;8.00;99.90;;;;;;5052507;28;20201;-91
2022/05/11 08:57:48;;;;;;;2.87;1.63;;;8.40;99.90;;;;;;5877793;22;20236;-91
2022/05/11 09:00:21;;;;;;;1.97;1.40;;;8.50;99.90;;;;;;5040325;28;20220;-91
2022/05/11 09:02:56;;;;;;;3.87;1.30;;;8.50;99.90;;;;;;5039410;28;20205;-91
2022/05/11 09:05:30;;;;;;;3.60;1.27;;;8.50;99.90;;;;;;5039258;28;20205;-91
2022/05/11 09:08:06;;;;;;;1.77;1.30;;;8.50;99.90;;;;;;5038830;28;20240;-91
2022/05/11 09:10:40;;;;;;;2.10;1.07;;;8.50;99.90;;;;;;5039283;28;20270;-91
2022/05/11 09:13:16;;;;;;;2.80;1.20;;;8.40;99.90;;;;;;5044191;28;20246;-91
2022/05/11 09:15:57;;;;;;;1.93;1.10;;;8.30;99.90;;;;;;5050762;28;20215;-91
2022/05/11 09:18:39;;;;;;;2.40;1.30;;;8.30;99.90;;;;;;5038236;28;20209;-91
2022/05/11 09:21:29;;;;;;;3.23;1.27;;;8.30;99.90;;;;;;5038907;28;20204;-90
2022/05/11 09:24:09;;;;;;;2.43;1.20;;;8.20;99.90;;;;;;5038627;28;20610;-91
2022/05/11 09:26:44;;;;;;;2.80;1.20;;;8.20;99.90;;;;;;5038212;28;20291;-91
2022/05/11 09:29:37;;;;;;;2.80;1.30;;;8.20;99.90;;;;;;5038554;28;20582;-91
2022/05/11 09:32:31;;;;;;;3.50;1.30;;;8.20;99.90;;;;;;5038730;28;20658;-91
2022/05/11 09:35:36;;;;;;;1.80;1.07;;;8.20;99.90;;;;;;5038152;28;20267;-91
2022/05/11 09:38:37;;;;;;;2.50;1.13;;;8.20;99.90;;;;;;5032564;28;20584;-90
2022/05/11 09:41:14;;;;;;;3.90;1.10;;;8.20;99.90;;;;;;5017856;28;20224;-91
2022/05/11 09:43:50;;;;;;;4.10;1.10;;;8.20;99.90;;;;;;5019061;28;20210;-91
2022/05/11 09:46:32;;;;;;;2.50;1.03;;;8.20;99.90;;;;;;5018774;28;20267;-89
2022/05/11 09:49:06;;;;;;;3.30;0.90;;;8.20;99.90;;;;;;5023360;28;20233;-91
2022/05/11 09:51:44;;;;;;;1.47;1.10;;;8.20;99.90;;;;;;5021348;28;20216;-92
2022/05/11 09:54:28;;;;;;;1.97;0.93;;;8.10;99.90;;;;;;5018428;28;20266;-91
2022/05/11 09:57:01;;;;;;;3.47;1.37;;;8.10;99.90;;;;;;5023576;28;20182;-91
2022/05/11 09:59:34;;;;;;;2.50;1.20;;;8.00;99.90;;;;;;5026965;28;20238;-91
2022/05/11 10:02:24;;;;;;;2.20;1.10;;;7.90;99.90;;;;;;5040441;28;20200;-91
2022/05/11 10:05:01;;;;;;;3.57;1.20;;;7.80;99.90;;;;;;5041854;28;20209;-91
2022/05/11 10:07:36;;;;;;;2.93;1.33;;;7.80;99.90;;;;;;5041992;28;20220;-91
2022/05/11 10:10:12;;;;;;;2.20;1.60;;;7.70;99.90;;;;;;5019136;28;20244;-91
2022/05/11 10:12:46;;;;;;;2.60;1.00;;;7.60;99.90;;;;;;5021934;28;20270;-91
2022/05/11 10:24:12;;;;;;;3.57;1.40;;;7.40;99.90;;;;;;5029580;28;20218;-91
2022/05/11 10:26:59;;;;;;;3.43;1.17;;;7.40;99.90;;;;;;5035418;28;20193;-91
2022/05/11 10:29:46;;;;;;;3.70;1.50;;;7.30;99.90;;;;;;5030551;28;20256;-90
2022/05/11 10:32:26;;;;;;;3.57;1.53;;;7.20;99.90;;;;;;5020955;28;20222;-90
2022/05/11 10:35:07;;;;;;;3.40;1.20;;;7.20;99.90;;;;;;5028237;28;20209;-91
2022/05/11 10:37:49;;;;;;;1.67;1.30;;;7.20;99.90;;;;;;5020691;28;20224;-90
2022/05/11 10:40:31;;;;;;;4.83;1.47;;;7.10;99.90;;;;;;5045258;28;20239;-91
2022/05/11 10:43:12;;;;;;;2.23;1.20;;;7.00;99.90;;;;;;5038617;28;20220;-91
2022/05/11 10:45:50;;;;;;;2.40;1.40;;;7.00;99.90;;;;;;5041607;28;20208;-90
2022/05/11 10:48:46;;;;;;;3.40;1.43;;;6.80;99.90;;;;;;5037596;28;20233;-91
2022/05/11 10:51:31;;;;;;;7.13;1.67;;;6.90;99.90;;;;;;5037849;28;20596;-91
2022/05/11 10:54:09;;;;;;;3.30;1.50;;;6.80;99.90;;;;;;5038996;28;20220;-91
2022/05/11 10:56:51;;;;;;;2.57;1.60;;;6.80;99.90;;;;;;5037656;28;20550;-90
2022/05/11 10:59:47;;;;;;;2.23;1.10;;;6.70;99.90;;;;;;5038322;28;20219;-90
2022/05/11 11:02:56;;;;;;;4.53;1.60;;;6.70;99.90;;;;;;5039910;28;20632;-91
2022/05/11 11:05:35;;;;;;;3.57;1.40;;;6.60;99.90;;;;;;5039940;28;20209;-91
2022/05/11 11:08:21;;;;;;;3.03;1.60;;;6.60;99.90;;;;;;5035833;28;20240;-91
2022/05/11 11:11:00;;;;;;;3.50;1.30;;;6.60;99.90;;;;;;5037794;28;20232;-91
2022/05/11 11:13:51;;;;;;;2.50;1.20;;;6.60;99.90;;;;;;5041482;28;20211;-91
2022/05/11 11:16:44;;;;;;;4.67;1.23;;;6.60;99.90;;;;;;5042224;28;20217;-91
2022/05/11 11:19:17;;;;;;;1.57;1.10;;;6.60;99.90;;;;;;5039971;28;20291;-90
2022/05/11 11:21:48;;;;;;;2.80;1.30;;;6.50;99.90;;;;;;5040420;28;20273;-91
2022/05/11 11:24:28;;;;;;;2.97;1.40;;;6.50;99.90;;;;;;5041123;28;20196;-90
2022/05/11 11:27:00;;;;;;;3.43;1.20;;;6.50;99.90;;;;;;5038798;28;20205;-90
2022/05/11 11:29:33;;;;;;;1.57;1.33;;;6.40;99.90;;;;;;5040914;28;20320;-90
2022/05/11 11:32:13;;;;;;;4.53;1.27;;;6.40;99.90;;;;;;5040951;28;20213;-91
2022/05/11 11:34:47;;;;;;;2.73;1.30;;;6.40;99.90;;;;;;5042032;28;20201;-90
2022/05/11 11:38:01;;;;;;;4.00;1.43;;;6.40;99.90;;;;;;5043843;28;20232;-90
2022/05/11 11:40:36;;;;;;;3.10;1.27;;;6.30;99.90;;;;;;5044339;28;20323;-91
2022/05/11 11:43:43;;;;;;;4.07;1.50;;;6.30;99.90;;;;;;5042599;28;20211;-91
2022/05/11 11:46:31;;;;;;;1.40;1.20;;;6.30;99.90;;;;;;5039675;28;20257;-91
2022/05/11 11:49:09;;;;;;;1.83;1.00;;;6.30;99.90;;;;;;5040659;28;20266;-91
2022/05/11 11:52:00;;;;;;;6.73;1.37;;;6.30;99.90;;;;;;5042181;28;20217;-91
2022/05/11 11:54:53;;;;;;;2.00;1.37;;;6.30;99.90;;;;;;5040450;28;20244;-91
2022/05/11 11:57:34;;;;;;;4.57;1.30;;;6.30;99.90;;;;;;5040653;28;20209;-90
2022/05/11 12:00:50;;;;;;;2.03;1.63;;;6.20;99.90;;;;;;5042707;28;20235;-91
2022/05/11 12:03:24;;;;;;;3.23;1.23;;;6.20;99.90;;;;;;5040315;28;20259;-91
2022/05/11 12:15:01;;;;;;;3.43;1.43;;;6.20;99.90;;;;;;5039606;28;21006;-88
2022/05/11 12:15:03;;;;;;;4.80;1.63;;;6.10;99.90;;;;;;5029859;28;20232;-91
2022/05/11 12:17:38;;;;;;;2.37;1.40;;;6.10;99.90;;;;;;5039035;28;20320;-91
2022/05/11 12:20:13;;;;;;;4.17;1.13;;;6.10;99.90;;;;;;5041082;28;20243;-91
2022/05/11 12:22:51;;;;;;;4.40;1.20;;;6.00;99.90;;;;;;5040939;28;20292;-90
2022/05/11 12:25:30;;;;;;;6.83;1.60;;;6.00;99.90;;;;;;5043339;28;20660;-90
2022/05/11 12:28:04;;;;;;;3.33;1.20;;;5.80;99.90;;;;;;5040006;28;20205;-91
2022/05/11 12:30:44;;;;;;;3.60;1.23;;;5.90;99.90;;;;;;5041058;28;20204;-90
2022/05/11 12:33:23;;;;;;;3.63;1.40;;;5.90;99.90;;;;;;5050211;28;20276;-90
2022/05/11 12:35:55;;;;;;;4.83;1.17;;;5.90;99.90;;;;;;5056106;28;20205;-90
2022/05/11 12:38:32;;;;;;;3.27;1.27;;;5.90;99.90;;;;;;5055433;28;20239;-92
2022/05/11 12:41:15;;;;;;;1.93;1.20;;;6.00;99.90;;;;;;5052256;28;20236;-89
2022/05/11 12:43:57;;;;;;;3.93;1.40;;;6.00;99.90;;;;;;5047892;28;20205;-89
2022/05/11 12:46:32;;;;;;;3.37;1.17;;;6.00;99.90;;;;;;5051740;28;20201;-90
2022/05/11 12:49:06;;;;;;;3.03;1.00;;;6.00;99.90;;;;;;5049630;28;20236;-90
2022/05/11 12:51:42;;;;;;;4.57;1.30;;;6.00;99.90;;;;;;5044972;28;20217;-90
2022/05/11 12:54:21;;;;;;;2.93;1.20;;;6.10;99.90;;;;;;5041869;28;20212;-90
2022/05/11 12:56:59;;;;;;;4.17;1.13;;;6.10;99.90;;;;;;5048272;28;20218;-90
2022/05/11 12:59:33;;;;;;;2.63;1.00;;;6.20;99.90;;;;;;5048645;28;20216;-90
2022/05/11 13:02:23;;;;;;;3.63;1.10;;;6.20;99.90;;;;;;5051540;28;20556;-91
2022/05/11 13:04:56;;;;;;;5.30;1.30;;;6.20;99.90;;;;;;5043881;28;20232;-90
2022/05/11 13:07:31;;;;;;;2.43;1.30;;;6.40;99.90;;;;;;5039374;28;20209;-90
2022/05/11 13:10:05;;;;;;;3.00;1.17;;;6.40;99.90;;;;;;5039812;28;20232;-90
2022/05/11 13:12:39;;;;;;;4.00;1.27;;;6.40;99.90;;;;;;5038179;28;20208;-90
2022/05/11 13:15:12;;;;;;;2.80;0.90;;;6.50;99.90;;;;;;5039908;28;20232;-90
2022/05/11 13:17:50;;;;;;;2.97;1.40;;;6.60;99.90;;;;;;5039323;28;20270;-90
2022/05/11 13:20:25;;;;;;;1.60;1.20;;;6.60;99.90;;;;;;5038547;28;20258;-90
2022/05/11 13:23:00;;;;;;;4.27;1.43;;;6.80;99.90;;;;;;5038523;28;20208;-90
2022/05/11 13:25:49;;;;;;;4.47;1.30;;;6.80;99.90;;;;;;5038695;28;20238;-90
2022/05/11 13:28:26;;;;;;;4.47;1.33;;;6.90;99.90;;;;;;5042519;28;20209;-90
2022/05/11 13:31:00;;;;;;;2.13;1.00;;;7.00;99.90;;;;;;5037415;28;20560;-90
2022/05/11 13:33:42;;;;;;;2.93;1.00;;;7.10;99.90;;;;;;5037819;28;20213;-89
2022/05/11 13:36:19;;;;;;;3.53;1.10;;;7.10;99.90;;;;;;5038496;28;20213;-89
2022/05/11 13:38:53;;;;;;;3.10;1.10;;;7.20;99.90;;;;;;5038116;28;20709;-89
2022/05/11 13:41:29;;;;;;;3.33;1.03;;;7.30;99.90;;;;;;5039074;28;20241;-89
2022/05/11 13:44:04;;;;;;;3.07;0.93;;;7.30;99.90;;;;;;5043176;28;20558;-90
2022/05/11 13:49:44;;;;;;;3.07;1.07;;;7.40;99.90;;;;;;5036652;28;20328;-90
2022/05/11 13:52:35;;;;;;;2.63;0.90;;;7.40;99.90;;;;;;5037497;28;20240;-91
2022/05/11 13:55:09;;;;;;;3.10;1.23;;;7.50;99.90;;;;;;5037829;28;20209;-90
2022/05/11 13:57:41;;;;;;;2.67;1.20;;;7.50;99.90;;;;;;5036110;28;20227;-90
2022/05/11 14:00:16;;;;;;;3.53;0.93;;;7.50;99.90;;;;;;5037897;28;20213;-90
2022/05/11 14:02:55;;;;;;;2.23;1.10;;;7.50;99.90;;;;;;5037619;28;20285;-90
2022/05/11 14:05:29;;;;;;;2.77;0.97;;;7.60;99.90;;;;;;5038136;28;20260;-91
2022/05/11 14:08:01;;;;;;;2.23;1.03;;;7.60;99.90;;;;;;5036879;28;20307;-91
2022/05/11 14:10:33;;;;;;;3.50;1.03;;;7.50;99.90;;;;;;5037492;28;20255;-91
2022/05/11 14:13:05;;;;;;;5.70;1.73;;;7.50;99.90;;;;;;5037187;28;20627;-91
2022/05/11 14:15:36;;;;;;;1.73;1.00;;;7.50;99.90;;;;;;5037548;28;20248;-91
2022/05/11 14:18:13;;;;;;;2.37;1.23;;;7.50;99.90;;;;;;5035291;28;20238;-90
2022/05/11 14:20:49;;;;;;;5.53;1.20;;;7.50;99.90;;;;;;5021143;28;20668;-90
2022/05/11 14:23:21;;;;;;;1.77;1.17;;;7.50;99.90;;;;;;5038745;28;20252;-90
2022/05/11 14:25:52;;;;;;;3.70;1.20;;;7.50;99.90;;;;;;5039876;28;20212;-90
2022/05/11 14:28:25;;;;;;;1.63;1.03;;;7.50;99.90;;;;;;5048132;28;20217;-91
2022/05/11 14:30:56;;;;;;;5.93;1.53;;;7.50;99.90;;;;;;5054912;28;20224;-91
2022/05/11 14:33:29;;;;;;;5.93;1.57;;;7.50;99.90;;;;;;5055306;28;20204;-90
2022/05/11 14:36:02;;;;;;;4.37;1.40;;;7.50;99.90;;;;;;5056034;28;20193;-88
2022/05/11 14:38:33;;;;;;;2.97;1.30;;;7.50;99.90;;;;;;5054850;28;20197;-89
2022/05/11 14:41:05;;;;;;;6.17;2.00;;;7.50;99.90;;;;;;5034617;28;20217;-91
2022/05/11 14:43:37;;;;;;;3.83;1.20;;;7.60;99.90;;;;;;5035479;28;20201;-91
2022/05/11 14:46:13;;;;;;;5.80;1.33;;;7.70;99.90;;;;;;5036308;28;20194;-91
2022/05/11 14:48:47;;;;;;;3.53;1.33;;;7.80;99.90;;;;;;5036118;28;20200;-90
2022/05/11 14:51:24;;;;;;;4.33;1.00;;;8.10;99.90;;;;;;5035328;28;20222;-90
2022/05/11 14:53:57;;;;;;;3.80;1.30;;;8.40;99.90;;;;;;5031489;28;20268;-90
2022/05/11 14:56:29;;;;;;;3.67;1.20;;;8.70;99.90;;;;;;5034282;28;20228;-90
2022/05/11 15:02:00;;;;;;;6.77;1.30;;;8.70;99.90;;;;;;5036453;28;20232;-90
2022/05/11 15:04:40;;;;;;;2.30;1.00;;;8.90;99.90;;;;;;5027379;28;20249;-90
2022/05/11 15:07:16;;;;;;;4.73;1.27;;;9.00;99.90;;;;;;5029733;28;20235;-88
2022/05/11 15:09:49;;;;;;;2.53;1.10;;;9.10;99.90;;;;;;5026014;28;20229;-90
2022/05/11 15:15:12;;;;;;;3.93;1.10;;;9.20;99.90;;;;;;5037475;28;20220;-90
2022/05/11 15:17:45;;;;;;;5.00;1.37;;;9.20;99.90;;;;;;5034164;28;20209;-90
2022/05/11 15:20:20;;;;;;;5.47;1.53;;;9.20;99.90;;;;;;5037732;28;20288;-91
2022/05/11 15:23:03;;;;;;;3.03;1.17;;;9.20;99.90;;;;;;5037627;28;20236;-91
2022/05/11 15:25:36;;;;;;;4.50;1.30;;;9.20;99.90;;;;;;5031913;28;20213;-91
2022/05/11 15:28:08;;;;;;;3.40;1.40;;;9.40;99.90;;;;;;5050890;28;20197;-89
2022/05/11 15:30:42;;;;;;;2.73;1.20;;;9.50;99.90;;;;;;5053563;28;20229;-91
2022/05/11 15:33:15;;;;;;;6.57;1.27;;;9.70;99.90;;;;;;5056684;28;20188;-91